sensor_id;sensor_type;location;lat;lon;timestamp;pressure;altitude;pressure_sealevel;temperature;humidity
23281;BME280;11809;56.390;-3.266;2024-02-04T00:01:38;100972.13;;;14.06;57.12
23281;BME280;11809;56.390;-3.266;2024-02-04T00:04:11;100973.97;;;14.04;57.21
23281;BME280;11809;56.390;-3.266;2024-02-04T00:06:42;100972.34;;;14.01;57.18
23281;BME280;11809;56.390;-3.266;2024-02-04T00:09:13;100969.06;;;13.96;57.42
23281;BME280;11809;56.390;-3.266;2024-02-04T00:11:43;100989.34;;;13.95;57.41
23281;BME280;11809;56.390;-3.266;2024-02-04T00:14:14;100982.28;;;13.96;57.36
23281;BME280;11809;56.390;-3.266;2024-02-04T00:16:44;100984.31;;;13.91;57.46
23281;BME280;11809;56.390;-3.266;2024-02-04T00:19:17;100983.44;;;13.90;57.40
23281;BME280;11809;56.390;-3.266;2024-02-04T00:21:48;100997.56;;;13.89;57.56
23281;BME280;11809;56.390;-3.266;2024-02-04T00:24:19;100982.94;;;13.82;57.79
23281;BME280;11809;56.390;-3.266;2024-02-04T00:26:49;100983.03;;;13.81;57.59
23281;BME280;11809;56.390;-3.266;2024-02-04T00:29:20;100982.81;;;13.85;57.55
23281;BME280;11809;56.390;-3.266;2024-02-04T00:31:51;100985.59;;;13.82;57.71
23281;BME280;11809;56.390;-3.266;2024-02-04T00:34:24;100968.25;;;13.77;57.60
23281;BME280;11809;56.390;-3.266;2024-02-04T00:36:54;100978.81;;;13.77;57.60
23281;BME280;11809;56.390;-3.266;2024-02-04T00:39:26;100977.91;;;13.78;57.80
23281;BME280;11809;56.390;-3.266;2024-02-04T00:41:57;100969.25;;;13.74;57.68
23281;BME280;11809;56.390;-3.266;2024-02-04T00:44:27;100976.31;;;13.74;58.15
23281;BME280;11809;56.390;-3.266;2024-02-04T00:46:58;100981.69;;;13.72;58.02
23281;BME280;11809;56.390;-3.266;2024-02-04T00:49:31;100973.00;;;13.70;58.10
23281;BME280;11809;56.390;-3.266;2024-02-04T00:52:01;100951.91;;;13.69;57.93
23281;BME280;11809;56.390;-3.266;2024-02-04T00:54:32;100948.56;;;13.65;58.12
23281;BME280;11809;56.390;-3.266;2024-02-04T00:57:03;100943.28;;;13.65;58.18
23281;BME280;11809;56.390;-3.266;2024-02-04T00:59:33;100953.06;;;13.63;58.10
23281;BME280;11809;56.390;-3.266;2024-02-04T01:02:04;100954.00;;;13.62;58.21
23281;BME280;11809;56.390;-3.266;2024-02-04T01:04:37;100952.28;;;13.61;58.25
23281;BME280;11809;56.390;-3.266;2024-02-04T01:07:07;100941.16;;;13.55;58.07
23281;BME280;11809;56.390;-3.266;2024-02-04T01:09:38;100939.31;;;13.57;58.04
23281;BME280;11809;56.390;-3.266;2024-02-04T01:12:08;100931.44;;;13.55;58.29
23281;BME280;11809;56.390;-3.266;2024-02-04T01:14:39;100943.78;;;13.55;58.32
23281;BME280;11809;56.390;-3.266;2024-02-04T01:17:09;100940.38;;;13.53;58.54
23281;BME280;11809;56.390;-3.266;2024-02-04T01:19:42;100925.66;;;13.47;58.33
23281;BME280;11809;56.390;-3.266;2024-02-04T01:22:13;100930.81;;;13.50;58.46
23281;BME280;11809;56.390;-3.266;2024-02-04T01:24:44;100941.38;;;13.50;58.28
23281;BME280;11809;56.390;-3.266;2024-02-04T01:27:15;100941.59;;;13.46;58.69
23281;BME280;11809;56.390;-3.266;2024-02-04T01:29:46;100944.16;;;13.47;58.60
23281;BME280;11809;56.390;-3.266;2024-02-04T01:32:16;100936.22;;;13.47;58.54
23281;BME280;11809;56.390;-3.266;2024-02-04T01:34:49;100927.53;;;13.45;58.40
23281;BME280;11809;56.390;-3.266;2024-02-04T01:37:20;100923.97;;;13.46;58.59
23281;BME280;11809;56.390;-3.266;2024-02-04T01:39:50;100924.97;;;13.44;58.49
23281;BME280;11809;56.390;-3.266;2024-02-04T01:42:21;100929.31;;;13.45;58.48
23281;BME280;11809;56.390;-3.266;2024-02-04T01:44:51;100931.19;;;13.43;58.63
23281;BME280;11809;56.390;-3.266;2024-02-04T01:47:21;100926.75;;;13.43;58.47
23281;BME280;11809;56.390;-3.266;2024-02-04T01:49:54;100932.09;;;13.42;58.76
23281;BME280;11809;56.390;-3.266;2024-02-04T01:52:25;100927.63;;;13.44;58.53
23281;BME280;11809;56.390;-3.266;2024-02-04T01:54:56;100926.91;;;13.40;58.64
23281;BME280;11809;56.390;-3.266;2024-02-04T01:57:27;100924.41;;;13.37;58.58
23281;BME280;11809;56.390;-3.266;2024-02-04T01:59:57;100920.84;;;13.38;58.61
23281;BME280;11809;56.390;-3.266;2024-02-04T02:02:30;100915.63;;;13.36;58.66
23281;BME280;11809;56.390;-3.266;2024-02-04T02:05:06;100908.69;;;13.34;58.80
23281;BME280;11809;56.390;-3.266;2024-02-04T02:07:37;100908.69;;;13.34;58.65
23281;BME280;11809;56.390;-3.266;2024-02-04T02:10:08;100899.09;;;13.33;58.92
23281;BME280;11809;56.390;-3.266;2024-02-04T02:12:41;100909.78;;;13.30;58.91
23281;BME280;11809;56.390;-3.266;2024-02-04T02:15:15;100891.31;;;13.30;58.93
23281;BME280;11809;56.390;-3.266;2024-02-04T02:17:50;100903.44;;;13.34;58.71
23281;BME280;11809;56.390;-3.266;2024-02-04T02:20:29;100892.88;;;13.34;58.96
23281;BME280;11809;56.390;-3.266;2024-02-04T02:23:06;100889.38;;;13.33;58.84
23281;BME280;11809;56.390;-3.266;2024-02-04T02:25:40;100881.53;;;13.32;58.95
23281;BME280;11809;56.390;-3.266;2024-02-04T02:28:11;100878.91;;;13.32;58.99
23281;BME280;11809;56.390;-3.266;2024-02-04T02:30:41;100873.84;;;13.27;59.14
23281;BME280;11809;56.390;-3.266;2024-02-04T02:33:12;100864.84;;;13.31;59.20
23281;BME280;11809;56.390;-3.266;2024-02-04T02:35:43;100862.44;;;13.27;59.00
23281;BME280;11809;56.390;-3.266;2024-02-04T02:38:22;100876.34;;;13.30;59.20
23281;BME280;11809;56.390;-3.266;2024-02-04T02:40:59;100878.13;;;13.30;59.27
23281;BME280;11809;56.390;-3.266;2024-02-04T02:43:34;100876.41;;;13.29;59.21
23281;BME280;11809;56.390;-3.266;2024-02-04T02:46:06;100874.63;;;13.29;59.17
23281;BME280;11809;56.390;-3.266;2024-02-04T02:48:37;100878.13;;;13.30;59.11
23281;BME280;11809;56.390;-3.266;2024-02-04T02:51:07;100879.03;;;13.29;59.14
23281;BME280;11809;56.390;-3.266;2024-02-04T02:53:37;100873.97;;;13.24;59.30
23281;BME280;11809;56.390;-3.266;2024-02-04T02:56:11;100879.03;;;13.29;59.51
23281;BME280;11809;56.390;-3.266;2024-02-04T02:58:41;100871.13;;;13.29;59.22
23281;BME280;11809;56.390;-3.266;2024-02-04T03:01:12;100884.31;;;13.29;59.24
23281;BME280;11809;56.390;-3.266;2024-02-04T03:03:42;100878.41;;;13.24;59.39
23281;BME280;11809;56.390;-3.266;2024-02-04T03:06:13;100892.47;;;13.24;59.06
23281;BME280;11809;56.390;-3.266;2024-02-04T03:08:43;100883.69;;;13.24;59.44
23281;BME280;11809;56.390;-3.266;2024-02-04T03:11:16;100881.69;;;13.29;59.37
23281;BME280;11809;56.390;-3.266;2024-02-04T03:13:46;100881.75;;;13.27;59.23
23281;BME280;11809;56.390;-3.266;2024-02-04T03:16:17;100872.25;;;13.23;59.42
23281;BME280;11809;56.390;-3.266;2024-02-04T03:18:47;100866.84;;;13.26;59.49
23281;BME280;11809;56.390;-3.266;2024-02-04T03:21:17;100844.00;;;13.25;59.42
23281;BME280;11809;56.390;-3.266;2024-02-04T03:23:47;100841.16;;;13.30;59.51
23281;BME280;11809;56.390;-3.266;2024-02-04T03:26:20;100846.44;;;13.30;59.39
23281;BME280;11809;56.390;-3.266;2024-02-04T03:28:51;100846.44;;;13.30;59.34
23281;BME280;11809;56.390;-3.266;2024-02-04T03:31:22;100836.09;;;13.25;59.44
23281;BME280;11809;56.390;-3.266;2024-02-04T03:33:53;100832.31;;;13.31;59.48
23281;BME280;11809;56.390;-3.266;2024-02-04T03:36:24;100819.19;;;13.29;59.43
23281;BME280;11809;56.390;-3.266;2024-02-04T03:38:54;100825.34;;;13.30;59.35
23281;BME280;11809;56.390;-3.266;2024-02-04T03:41:27;100806.06;;;13.28;59.34
23281;BME280;11809;56.390;-3.266;2024-02-04T03:43:58;100807.78;;;13.29;59.48
23281;BME280;11809;56.390;-3.266;2024-02-04T03:46:28;100802.44;;;13.30;59.51
23281;BME280;11809;56.390;-3.266;2024-02-04T03:48:58;100793.66;;;13.30;59.40
23281;BME280;11809;56.390;-3.266;2024-02-04T03:51:29;100800.72;;;13.29;59.43
23281;BME280;11809;56.390;-3.266;2024-02-04T03:53:59;100774.56;;;13.25;59.44
23281;BME280;11809;56.390;-3.266;2024-02-04T03:56:32;100783.09;;;13.30;59.71
23281;BME280;11809;56.390;-3.266;2024-02-04T03:59:02;100783.09;;;13.30;59.50
23281;BME280;11809;56.390;-3.266;2024-02-04T04:01:33;100793.66;;;13.30;59.40
23281;BME280;11809;56.390;-3.266;2024-02-04T04:04:04;100784.78;;;13.31;59.52
23281;BME280;11809;56.390;-3.266;2024-02-04T04:06:34;100783.97;;;13.30;59.56
23281;BME280;11809;56.390;-3.266;2024-02-04T04:09:05;100777.81;;;13.30;59.54
23281;BME280;11809;56.390;-3.266;2024-02-04T04:11:38;100791.03;;;13.30;59.40
23281;BME280;11809;56.390;-3.266;2024-02-04T04:14:08;100790.94;;;13.31;59.50
23281;BME280;11809;56.390;-3.266;2024-02-04T04:16:38;100782.16;;;13.31;59.63
23281;BME280;11809;56.390;-3.266;2024-02-04T04:19:09;100782.16;;;13.31;59.42
23281;BME280;11809;56.390;-3.266;2024-02-04T04:21:39;100772.44;;;13.31;59.50
23281;BME280;11809;56.390;-3.266;2024-02-04T04:24:10;100774.22;;;13.31;59.67
23281;BME280;11809;56.390;-3.266;2024-02-04T04:26:45;100765.41;;;13.32;59.49
23281;BME280;11809;56.390;-3.266;2024-02-04T04:29:15;100775.19;;;13.30;59.65
23281;BME280;11809;56.390;-3.266;2024-02-04T04:31:46;100747.00;;;13.30;59.48
23281;BME280;11809;56.390;-3.266;2024-02-04T04:34:16;100748.69;;;13.31;59.77
23281;BME280;11809;56.390;-3.266;2024-02-04T04:36:47;100739.09;;;13.30;59.53
23281;BME280;11809;56.390;-3.266;2024-02-04T04:39:17;100739.94;;;13.31;59.49
23281;BME280;11809;56.390;-3.266;2024-02-04T04:41:50;100761.91;;;13.31;59.50
23281;BME280;11809;56.390;-3.266;2024-02-04T04:44:20;100739.25;;;13.27;59.37
23281;BME280;11809;56.390;-3.266;2024-02-04T04:46:50;100735.50;;;13.31;59.44
23281;BME280;11809;56.390;-3.266;2024-02-04T04:49:21;100758.41;;;13.31;59.51
23281;BME280;11809;56.390;-3.266;2024-02-04T04:51:51;100758.41;;;13.31;59.57
23281;BME280;11809;56.390;-3.266;2024-02-04T04:54:22;100735.75;;;13.27;59.73
23281;BME280;11809;56.390;-3.266;2024-02-04T04:56:55;100734.72;;;13.29;59.71
23281;BME280;11809;56.390;-3.266;2024-02-04T04:59:26;100749.84;;;13.26;59.52
23281;BME280;11809;56.390;-3.266;2024-02-04T05:01:56;100744.28;;;13.32;59.77
23281;BME280;11809;56.390;-3.266;2024-02-04T05:04:26;100735.50;;;13.31;59.64
23281;BME280;11809;56.390;-3.266;2024-02-04T05:06:57;100732.00;;;13.31;59.66
23281;BME280;11809;56.390;-3.266;2024-02-04T05:09:27;100742.56;;;13.31;59.78
23281;BME280;11809;56.390;-3.266;2024-02-04T05:12:00;100742.66;;;13.29;59.59
23281;BME280;11809;56.390;-3.266;2024-02-04T05:14:30;100736.47;;;13.30;59.64
23281;BME280;11809;56.390;-3.266;2024-02-04T05:17:01;100722.41;;;13.30;59.55
23281;BME280;11809;56.390;-3.266;2024-02-04T05:19:31;100735.59;;;13.30;59.55
23281;BME280;11809;56.390;-3.266;2024-02-04T05:22:02;100728.59;;;13.29;59.57
23281;BME280;11809;56.390;-3.266;2024-02-04T05:24:32;100743.50;;;13.30;59.54
23281;BME280;11809;56.390;-3.266;2024-02-04T05:27:05;100733.88;;;13.29;59.75
23281;BME280;11809;56.390;-3.266;2024-02-04T05:29:36;100716.16;;;13.31;59.81
23281;BME280;11809;56.390;-3.266;2024-02-04T05:32:06;100728.59;;;13.29;59.54
23281;BME280;11809;56.390;-3.266;2024-02-04T05:34:37;100738.28;;;13.28;59.58
23281;BME280;11809;56.390;-3.266;2024-02-04T05:37:08;100739.16;;;13.29;59.63
23281;BME280;11809;56.390;-3.266;2024-02-04T05:39:38;100744.44;;;13.29;59.67
23281;BME280;11809;56.390;-3.266;2024-02-04T05:42:11;100726.25;;;13.23;59.86
23281;BME280;11809;56.390;-3.266;2024-02-04T05:44:42;100728.59;;;13.29;59.62
23281;BME280;11809;56.390;-3.266;2024-02-04T05:47:12;100700.47;;;13.28;59.64
23281;BME280;11809;56.390;-3.266;2024-02-04T05:49:42;100709.34;;;13.27;59.83
23281;BME280;11809;56.390;-3.266;2024-02-04T05:52:14;100723.41;;;13.27;59.56
23281;BME280;11809;56.390;-3.266;2024-02-04T05:54:45;100719.13;;;13.25;59.78
23281;BME280;11809;56.390;-3.266;2024-02-04T05:57:18;100726.03;;;13.27;59.70
23281;BME280;11809;56.390;-3.266;2024-02-04T05:59:49;100735.75;;;13.27;59.77
23281;BME280;11809;56.390;-3.266;2024-02-04T06:02:20;100719.91;;;13.27;59.75
23281;BME280;11809;56.390;-3.266;2024-02-04T06:04:50;100730.06;;;13.34;59.57
23281;BME280;11809;56.390;-3.266;2024-02-04T06:07:21;100730.16;;;13.33;59.15
23281;BME280;11809;56.390;-3.266;2024-02-04T06:09:51;100707.09;;;13.36;59.35
23281;BME280;11809;56.390;-3.266;2024-02-04T06:12:25;100721.16;;;13.37;59.00
23281;BME280;11809;56.390;-3.266;2024-02-04T06:14:56;100725.50;;;13.38;59.31
23281;BME280;11809;56.390;-3.266;2024-02-04T06:17:26;100737.69;;;13.41;59.39
23281;BME280;11809;56.390;-3.266;2024-02-04T06:19:57;100724.56;;;13.39;59.51
23281;BME280;11809;56.390;-3.266;2024-02-04T06:22:28;100715.16;;;13.33;60.08
23281;BME280;11809;56.390;-3.266;2024-02-04T06:24:58;100732.00;;;13.31;60.14
23281;BME280;11809;56.390;-3.266;2024-02-04T06:27:31;100719.91;;;13.27;60.37
23281;BME280;11809;56.390;-3.266;2024-02-04T06:30:02;100726.09;;;13.26;60.46
23281;BME280;11809;56.390;-3.266;2024-02-04T06:32:36;100716.50;;;13.25;60.41
23281;BME280;11809;56.390;-3.266;2024-02-04T06:35:07;100703.38;;;13.23;60.36
23281;BME280;11809;56.390;-3.266;2024-02-04T06:37:37;100701.66;;;13.22;60.40
23281;BME280;11809;56.390;-3.266;2024-02-04T06:40:10;100711.28;;;13.23;60.38
23281;BME280;11809;56.390;-3.266;2024-02-04T06:42:43;100723.63;;;13.23;60.60
23281;BME280;11809;56.390;-3.266;2024-02-04T06:45:13;100724.56;;;13.22;60.58
23281;BME280;11809;56.390;-3.266;2024-02-04T06:47:44;100721.94;;;13.22;60.49
23281;BME280;11809;56.390;-3.266;2024-02-04T06:50:14;100719.28;;;13.22;60.50
23281;BME280;11809;56.390;-3.266;2024-02-04T06:52:45;100722.78;;;13.22;60.76
23281;BME280;11809;56.390;-3.266;2024-02-04T06:55:16;100719.28;;;13.22;60.50
23281;BME280;11809;56.390;-3.266;2024-02-04T06:57:49;100707.78;;;13.23;60.82
23281;BME280;11809;56.390;-3.266;2024-02-04T07:00:19;100705.13;;;13.23;60.82
23281;BME280;11809;56.390;-3.266;2024-02-04T07:02:51;100698.94;;;13.24;60.71
23281;BME280;11809;56.390;-3.266;2024-02-04T07:05:21;100690.94;;;13.25;60.83
23281;BME280;11809;56.390;-3.266;2024-02-04T07:07:52;100677.53;;;13.30;60.54
23281;BME280;11809;56.390;-3.266;2024-02-04T07:10:22;100678.28;;;13.32;60.98
23281;BME280;11809;56.390;-3.266;2024-02-04T07:12:55;100673.13;;;13.30;60.75
23281;BME280;11809;56.390;-3.266;2024-02-04T07:15:26;100686.94;;;13.35;60.70
23281;BME280;11809;56.390;-3.266;2024-02-04T07:17:56;100673.94;;;13.31;60.83
23281;BME280;11809;56.390;-3.266;2024-02-04T07:20:26;100692.13;;;13.37;60.66
23281;BME280;11809;56.390;-3.266;2024-02-04T07:22:57;100682.09;;;13.44;60.92
23281;BME280;11809;56.390;-3.266;2024-02-04T07:25:27;100696.13;;;13.44;60.62
23281;BME280;11809;56.390;-3.266;2024-02-04T07:28:00;100691.81;;;13.43;60.87
23281;BME280;11809;56.390;-3.266;2024-02-04T07:30:31;100687.28;;;13.45;60.61
23281;BME280;11809;56.390;-3.266;2024-02-04T07:33:02;100695.97;;;13.47;61.03
23281;BME280;11809;56.390;-3.266;2024-02-04T07:35:32;100698.72;;;13.46;61.03
23281;BME280;11809;56.390;-3.266;2024-02-04T07:38:03;100702.22;;;13.46;60.86
23281;BME280;11809;56.390;-3.266;2024-02-04T07:40:33;100690.84;;;13.44;60.71
23281;BME280;11809;56.390;-3.266;2024-02-04T07:43:06;100689.03;;;13.46;60.80
23281;BME280;11809;56.390;-3.266;2024-02-04T07:45:37;100701.25;;;13.47;60.84
23281;BME280;11809;56.390;-3.266;2024-02-04T07:48:07;100706.53;;;13.47;60.74
23281;BME280;11809;56.390;-3.266;2024-02-04T07:50:38;100700.41;;;13.47;60.88
23281;BME280;11809;56.390;-3.266;2024-02-04T07:53:09;100703.91;;;13.47;61.07
23281;BME280;11809;56.390;-3.266;2024-02-04T07:55:39;100710.13;;;13.46;60.78
23281;BME280;11809;56.390;-3.266;2024-02-04T07:58:12;100704.00;;;13.46;60.84
23281;BME280;11809;56.390;-3.266;2024-02-04T08:00:43;100699.56;;;13.46;60.91
23281;BME280;11809;56.390;-3.266;2024-02-04T08:03:13;100698.88;;;13.43;60.84
23281;BME280;11809;56.390;-3.266;2024-02-04T08:05:44;100704.84;;;13.46;60.78
23281;BME280;11809;56.390;-3.266;2024-02-04T08:08:14;100704.31;;;13.40;59.43
23281;BME280;11809;56.390;-3.266;2024-02-04T08:10:44;100707.66;;;13.43;59.89
23281;BME280;11809;56.390;-3.266;2024-02-04T08:13:18;100693.28;;;13.49;60.32
23281;BME280;11809;56.390;-3.266;2024-02-04T08:15:48;100705.00;;;13.43;60.93
23281;BME280;11809;56.390;-3.266;2024-02-04T08:18:19;100690.09;;;13.42;60.90
23281;BME280;11809;56.390;-3.266;2024-02-04T08:20:49;100692.72;;;13.42;60.73
23281;BME280;11809;56.390;-3.266;2024-02-04T08:23:20;100691.03;;;13.41;60.82
23281;BME280;11809;56.390;-3.266;2024-02-04T08:25:51;100703.13;;;13.45;60.68
23281;BME280;11809;56.390;-3.266;2024-02-04T08:28:24;100696.13;;;13.44;61.08
23281;BME280;11809;56.390;-3.266;2024-02-04T08:30:55;100691.66;;;13.46;60.94
23281;BME280;11809;56.390;-3.266;2024-02-04T08:33:25;100705.53;;;13.50;60.97
23281;BME280;11809;56.390;-3.266;2024-02-04T08:35:56;100704.75;;;13.48;61.39
23281;BME280;11809;56.390;-3.266;2024-02-04T08:38:27;100712.84;;;13.45;61.22
23281;BME280;11809;56.390;-3.266;2024-02-04T08:40:57;100704.16;;;13.43;61.01
23281;BME280;11809;56.390;-3.266;2024-02-04T08:43:31;100704.31;;;13.40;60.80
23281;BME280;11809;56.390;-3.266;2024-02-04T08:46:01;100707.03;;;13.38;61.25
23281;BME280;11809;56.390;-3.266;2024-02-04T08:48:40;100700.94;;;13.36;61.05
23281;BME280;11809;56.390;-3.266;2024-02-04T08:51:11;100691.19;;;13.38;60.86
23281;BME280;11809;56.390;-3.266;2024-02-04T08:53:43;100694.44;;;13.43;60.89
23281;BME280;11809;56.390;-3.266;2024-02-04T08:56:14;100679.47;;;13.44;61.07
23281;BME280;11809;56.390;-3.266;2024-02-04T08:58:48;100674.19;;;13.44;61.39
23281;BME280;11809;56.390;-3.266;2024-02-04T09:01:19;100678.59;;;13.43;61.92
23281;BME280;11809;56.390;-3.266;2024-02-04T09:03:50;100681.41;;;13.40;61.20
23281;BME280;11809;56.390;-3.266;2024-02-04T09:06:20;100675.19;;;13.41;61.12
23281;BME280;11809;56.390;-3.266;2024-02-04T09:08:51;100677.34;;;13.50;61.64
23281;BME280;11809;56.390;-3.266;2024-02-04T09:11:21;100685.81;;;13.57;62.07
23281;BME280;11809;56.390;-3.266;2024-02-04T09:13:54;100677.97;;;13.55;62.04
23281;BME280;11809;56.390;-3.266;2024-02-04T09:16:25;100669.44;;;13.50;61.86
23281;BME280;11809;56.390;-3.266;2024-02-04T09:18:56;100661.91;;;13.43;62.03
23281;BME280;11809;56.390;-3.266;2024-02-04T09:21:26;100668.72;;;13.47;62.28
23281;BME280;11809;56.390;-3.266;2024-02-04T09:23:57;100675.00;;;13.44;62.17
23281;BME280;11809;56.390;-3.266;2024-02-04T09:26:27;100664.47;;;13.44;62.10
23281;BME280;11809;56.390;-3.266;2024-02-04T09:29:00;100674.25;;;13.42;62.04
23281;BME280;11809;56.390;-3.266;2024-02-04T09:31:31;100677.84;;;13.41;62.07
23281;BME280;11809;56.390;-3.266;2024-02-04T09:34:01;100668.19;;;13.40;61.99
23281;BME280;11809;56.390;-3.266;2024-02-04T09:36:33;100653.22;;;13.41;61.75
23281;BME280;11809;56.390;-3.266;2024-02-04T09:39:04;100649.63;;;13.42;61.68
23281;BME280;11809;56.390;-3.266;2024-02-04T09:41:35;100656.78;;;13.40;61.58
23281;BME280;11809;56.390;-3.266;2024-02-04T09:44:08;100655.00;;;13.40;61.71
23281;BME280;11809;56.390;-3.266;2024-02-04T09:46:43;100653.28;;;13.39;61.86
23281;BME280;11809;56.390;-3.266;2024-02-04T09:49:14;100649.81;;;13.39;61.73
23281;BME280;11809;56.390;-3.266;2024-02-04T09:51:45;100641.03;;;13.38;61.62
23281;BME280;11809;56.390;-3.266;2024-02-04T09:54:17;100643.69;;;13.38;61.64
23281;BME280;11809;56.390;-3.266;2024-02-04T09:56:49;100647.41;;;13.34;61.67
23281;BME280;11809;56.390;-3.266;2024-02-04T09:59:23;100652.53;;;13.37;61.50
23281;BME280;11809;56.390;-3.266;2024-02-04T10:01:55;100650.81;;;13.36;61.64
23281;BME280;11809;56.390;-3.266;2024-02-04T10:04:26;100645.53;;;13.36;61.57
23281;BME280;11809;56.390;-3.266;2024-02-04T10:06:57;100636.16;;;13.30;61.57
23281;BME280;11809;56.390;-3.266;2024-02-04T10:09:27;100633.28;;;13.35;61.59
23281;BME280;11809;56.390;-3.266;2024-02-04T10:11:59;100640.25;;;13.36;61.46
23281;BME280;11809;56.390;-3.266;2024-02-04T10:14:32;100638.56;;;13.35;61.38
23281;BME280;11809;56.390;-3.266;2024-02-04T10:17:04;100641.19;;;13.35;61.40
23281;BME280;11809;56.390;-3.266;2024-02-04T10:19:34;100627.38;;;13.30;61.51
23281;BME280;11809;56.390;-3.266;2024-02-04T10:22:05;100641.25;;;13.33;61.59
23281;BME280;11809;56.390;-3.266;2024-02-04T10:24:35;100629.00;;;13.32;61.53
23281;BME280;11809;56.390;-3.266;2024-02-04T10:27:06;100616.66;;;13.33;61.40
23281;BME280;11809;56.390;-3.266;2024-02-04T10:29:47;100621.94;;;13.33;61.58
23281;BME280;11809;56.390;-3.266;2024-02-04T10:32:21;100615.81;;;13.32;61.48
23281;BME280;11809;56.390;-3.266;2024-02-04T10:34:52;100608.75;;;13.33;61.61
23281;BME280;11809;56.390;-3.266;2024-02-04T10:37:23;100605.47;;;13.28;61.68
23281;BME280;11809;56.390;-3.266;2024-02-04T10:39:56;100610.75;;;13.28;61.80
23281;BME280;11809;56.390;-3.266;2024-02-04T10:42:27;100614.03;;;13.33;61.45
23281;BME280;11809;56.390;-3.266;2024-02-04T10:45:02;100613.16;;;13.32;61.48
23281;BME280;11809;56.390;-3.266;2024-02-04T10:47:37;100616.66;;;13.33;61.47
23281;BME280;11809;56.390;-3.266;2024-02-04T10:50:09;100608.09;;;13.28;61.41
23281;BME280;11809;56.390;-3.266;2024-02-04T10:52:40;100627.22;;;13.33;61.37
23281;BME280;11809;56.390;-3.266;2024-02-04T10:55:23;100621.16;;;13.31;61.64
23281;BME280;11809;56.390;-3.266;2024-02-04T10:57:57;100622.09;;;13.30;61.40
23281;BME280;11809;56.390;-3.266;2024-02-04T11:00:32;100626.38;;;13.32;61.54
23281;BME280;11809;56.390;-3.266;2024-02-04T11:03:04;100630.69;;;13.33;61.19
23281;BME280;11809;56.390;-3.266;2024-02-04T11:05:36;100622.88;;;13.32;61.65
23281;BME280;11809;56.390;-3.266;2024-02-04T11:08:06;100612.31;;;13.32;61.63
23281;BME280;11809;56.390;-3.266;2024-02-04T11:10:35;100605.00;;;13.37;61.59
23281;BME280;11809;56.390;-3.266;2024-02-04T11:13:08;100598.00;;;13.36;61.76
23281;BME280;11809;56.390;-3.266;2024-02-04T11:15:45;100595.78;;;13.28;61.80
23281;BME280;11809;56.390;-3.266;2024-02-04T11:18:35;100596.63;;;13.29;61.39
23281;BME280;11809;56.390;-3.266;2024-02-04T11:21:45;100616.72;;;13.31;61.59
23281;BME280;11809;56.390;-3.266;2024-02-04T11:24:31;100599.38;;;13.27;61.45
23281;BME280;11809;56.390;-3.266;2024-02-04T11:27:05;100602.69;;;13.31;61.51
23281;BME280;11809;56.390;-3.266;2024-02-04T11:29:36;100608.91;;;13.30;61.73
23281;BME280;11809;56.390;-3.266;2024-02-04T11:32:12;100594.09;;;13.27;61.72
23281;BME280;11809;56.390;-3.266;2024-02-04T11:34:43;100598.50;;;13.27;61.57
23281;BME280;11809;56.390;-3.266;2024-02-04T11:37:18;100596.78;;;13.26;61.41
23281;BME280;11809;56.390;-3.266;2024-02-04T11:39:50;100582.72;;;13.25;61.57
23281;BME280;11809;56.390;-3.266;2024-02-04T11:42:22;100577.41;;;13.27;61.63
23281;BME280;11809;56.390;-3.266;2024-02-04T11:45:07;100584.53;;;13.25;61.53
23281;BME280;11809;56.390;-3.266;2024-02-04T11:47:42;100573.19;;;13.23;61.60
23281;BME280;11809;56.390;-3.266;2024-02-04T11:50:25;100569.88;;;13.19;61.36
23281;BME280;11809;56.390;-3.266;2024-02-04T11:53:08;100558.47;;;13.19;61.53
23281;BME280;11809;56.390;-3.266;2024-02-04T11:55:40;100561.88;;;13.21;61.54
23281;BME280;11809;56.390;-3.266;2024-02-04T11:58:12;100546.03;;;13.21;61.45
23281;BME280;11809;56.390;-3.266;2024-02-04T12:00:45;100550.63;;;13.17;61.50
23281;BME280;11809;56.390;-3.266;2024-02-04T12:03:28;100563.66;;;13.20;61.47
23281;BME280;11809;56.390;-3.266;2024-02-04T12:06:00;100554.91;;;13.20;61.51
23281;BME280;11809;56.390;-3.266;2024-02-04T12:08:32;100548.16;;;13.14;61.75
23281;BME280;11809;56.390;-3.266;2024-02-04T12:11:04;100554.06;;;13.19;61.64
23281;BME280;11809;56.390;-3.266;2024-02-04T12:13:35;100538.38;;;13.16;61.39
23281;BME280;11809;56.390;-3.266;2024-02-04T12:16:09;100530.38;;;13.18;61.52
23281;BME280;11809;56.390;-3.266;2024-02-04T12:18:50;100531.22;;;13.18;61.61
23281;BME280;11809;56.390;-3.266;2024-02-04T12:21:21;100529.28;;;13.22;61.82
23281;BME280;11809;56.390;-3.266;2024-02-04T12:23:52;100535.47;;;13.21;61.83
23281;BME280;11809;56.390;-3.266;2024-02-04T12:26:23;100524.94;;;13.21;61.50
23281;BME280;11809;56.390;-3.266;2024-02-04T12:28:53;100516.25;;;13.19;61.68
23281;BME280;11809;56.390;-3.266;2024-02-04T12:31:26;100518.88;;;13.19;61.49
23281;BME280;11809;56.390;-3.266;2024-02-04T12:34:03;100519.66;;;13.21;61.45
23281;BME280;11809;56.390;-3.266;2024-02-04T12:36:33;100517.00;;;13.21;61.61
23281;BME280;11809;56.390;-3.266;2024-02-04T12:39:04;100501.34;;;13.18;61.59
23281;BME280;11809;56.390;-3.266;2024-02-04T12:41:37;100503.81;;;13.21;61.61
23281;BME280;11809;56.390;-3.266;2024-02-04T12:44:07;100499.31;;;13.23;61.87
23281;BME280;11809;56.390;-3.266;2024-02-04T12:46:39;100494.97;;;13.22;61.78
23281;BME280;11809;56.390;-3.266;2024-02-04T12:49:18;100492.41;;;13.20;61.75
23281;BME280;11809;56.390;-3.266;2024-02-04T12:51:50;100471.66;;;13.14;61.82
23281;BME280;11809;56.390;-3.266;2024-02-04T12:54:25;100475.97;;;13.15;61.85
23281;BME280;11809;56.390;-3.266;2024-02-04T12:56:55;100481.09;;;13.18;61.65
23281;BME280;11809;56.390;-3.266;2024-02-04T12:59:31;100479.31;;;13.19;61.61
23281;BME280;11809;56.390;-3.266;2024-02-04T13:02:03;100472.31;;;13.18;61.62
23281;BME280;11809;56.390;-3.266;2024-02-04T13:04:39;100460.91;;;13.17;61.57